createdAt,value
2018-09-25T00:01:01.381Z,99.90
2018-09-25T00:03:35.306Z,99.90
2018-09-25T00:06:09.240Z,99.90
2018-09-25T00:08:43.147Z,99.90
2018-09-25T00:11:16.952Z,99.90
2018-09-25T00:13:50.727Z,99.90
2018-09-25T00:16:24.475Z,99.90
2018-09-25T00:18:58.381Z,99.90
2018-09-25T00:21:32.060Z,99.90
2018-09-25T00:24:05.882Z,99.90
2018-09-25T00:26:39.806Z,99.90
2018-09-25T00:29:13.666Z,99.90
2018-09-25T00:31:47.401Z,99.90
2018-09-25T00:34:21.224Z,99.90
2018-09-25T00:36:54.993Z,99.90
2018-09-25T00:39:28.976Z,99.90
2018-09-25T00:42:02.769Z,99.90
2018-09-25T00:44:36.706Z,99.90
2018-09-25T00:47:10.767Z,99.90
2018-09-25T00:49:44.611Z,99.90
2018-09-25T00:52:18.602Z,99.90
2018-09-25T00:54:52.524Z,99.90
2018-09-25T00:57:26.288Z,99.90
2018-09-25T01:00:00.247Z,99.90
2018-09-25T01:02:34.045Z,99.90
2018-09-25T01:05:07.772Z,99.90
2018-09-25T01:07:41.724Z,99.90
2018-09-25T01:10:15.657Z,99.90
2018-09-25T01:12:49.451Z,99.90
2018-09-25T01:15:23.185Z,99.90
2018-09-25T01:17:57.191Z,99.90
2018-09-25T01:20:31.112Z,99.90
2018-09-25T01:23:05.031Z,99.90
2018-09-25T01:25:38.995Z,99.90
2018-09-25T01:28:12.917Z,99.90
2018-09-25T01:30:46.880Z,99.90
2018-09-25T01:33:20.626Z,99.90
2018-09-25T01:35:54.379Z,99.90
2018-09-25T01:38:28.343Z,99.90
2018-09-25T01:41:02.348Z,99.90
2018-09-25T01:43:36.114Z,99.90
2018-09-25T01:46:10.002Z,99.90
2018-09-25T01:48:43.885Z,99.90
2018-09-25T01:51:17.842Z,99.90
2018-09-25T01:53:51.610Z,99.90
2018-09-25T01:56:25.388Z,99.90
2018-09-25T01:58:59.662Z,99.90
2018-09-25T02:01:33.622Z,99.90
2018-09-25T02:04:07.377Z,99.90
2018-09-25T02:06:41.309Z,99.90
2018-09-25T02:09:15.224Z,99.90
2018-09-25T02:11:48.965Z,99.90
2018-09-25T02:14:22.688Z,99.90
2018-09-25T02:16:56.487Z,99.90
2018-09-25T02:19:30.446Z,99.90
2018-09-25T02:22:04.455Z,99.90
2018-09-25T02:24:38.424Z,99.90
2018-09-25T02:27:12.481Z,99.90
2018-09-25T02:29:46.366Z,99.90
2018-09-25T02:32:20.279Z,99.90
2018-09-25T02:34:54.761Z,99.90
2018-09-25T02:37:31.893Z,99.90
2018-09-25T02:40:05.785Z,99.90
2018-09-25T02:42:39.703Z,99.90
2018-09-25T02:45:13.542Z,99.90
2018-09-25T02:47:47.349Z,99.90
2018-09-25T02:50:21.236Z,99.90
2018-09-25T02:52:56.255Z,99.90
2018-09-25T02:55:29.989Z,99.90
2018-09-25T02:58:03.965Z,99.90
2018-09-25T03:00:38.767Z,99.90
2018-09-25T03:03:13.283Z,99.90
2018-09-25T03:05:47.037Z,99.90
2018-09-25T03:08:20.756Z,99.90
2018-09-25T03:10:54.629Z,99.90
2018-09-25T03:13:28.538Z,99.90
2018-09-25T03:16:02.298Z,99.90
2018-09-25T03:18:36.117Z,99.90
2018-09-25T03:21:10.075Z,99.90
2018-09-25T03:23:43.735Z,99.90
2018-09-25T03:26:17.545Z,99.90
2018-09-25T03:28:51.476Z,99.90
2018-09-25T03:31:25.498Z,99.90
2018-09-25T03:33:59.328Z,99.90
2018-09-25T03:36:33.283Z,99.90
2018-09-25T03:39:07.160Z,99.90
2018-09-25T03:41:40.952Z,99.90
2018-09-25T03:44:14.842Z,99.90
2018-09-25T03:46:48.609Z,99.90
2018-09-25T03:49:22.520Z,99.90
2018-09-25T03:51:56.300Z,99.90
2018-09-25T03:54:30.139Z,99.90
2018-09-25T03:57:04.144Z,99.90
2018-09-25T03:59:38.157Z,99.90
2018-09-25T04:02:12.181Z,99.90
2018-09-25T04:04:45.938Z,99.90
2018-09-25T04:07:19.876Z,99.90
2018-09-25T04:09:53.826Z,99.90
2018-09-25T04:12:27.529Z,99.90
2018-09-25T04:15:01.461Z,99.90
2018-09-25T04:17:35.232Z,99.90
2018-09-25T04:20:09.074Z,99.90
2018-09-25T04:22:42.821Z,99.90
2018-09-25T04:25:16.608Z,99.90
2018-09-25T04:27:50.549Z,99.90
2018-09-25T04:30:24.534Z,99.90
2018-09-25T04:32:58.347Z,99.90
2018-09-25T04:35:32.228Z,99.90
2018-09-25T04:38:06.075Z,99.90
2018-09-25T04:40:39.814Z,99.90
2018-09-25T04:43:13.704Z,99.90
2018-09-25T04:45:47.484Z,99.90
2018-09-25T04:48:21.450Z,99.90
2018-09-25T04:50:55.319Z,99.90
2018-09-25T04:53:29.162Z,99.90
2018-09-25T04:56:03.068Z,99.90
2018-09-25T04:58:36.794Z,99.90
2018-09-25T05:01:10.894Z,99.90
2018-09-25T05:03:44.706Z,99.90
2018-09-25T05:06:18.598Z,99.90
2018-09-25T05:08:52.389Z,99.90
2018-09-25T05:11:26.178Z,99.90
2018-09-25T05:14:00.142Z,99.90
2018-09-25T05:16:34.010Z,99.90
2018-09-25T05:19:07.919Z,99.90
2018-09-25T05:21:41.823Z,99.90
2018-09-25T05:24:15.791Z,99.90
2018-09-25T05:26:49.487Z,99.90
2018-09-25T05:29:23.218Z,99.90
2018-09-25T05:31:57.101Z,99.90
2018-09-25T05:34:31.105Z,99.90
2018-09-25T05:37:05.062Z,99.90
2018-09-25T05:39:38.853Z,99.90
2018-09-25T05:42:13.028Z,99.90
2018-09-25T05:44:46.827Z,99.90
2018-09-25T05:47:20.800Z,99.90
2018-09-25T05:49:54.567Z,99.90
2018-09-25T05:52:28.521Z,99.90
2018-09-25T05:55:02.425Z,99.90
2018-09-25T05:57:36.376Z,99.90
2018-09-25T06:00:10.599Z,99.90
2018-09-25T06:02:44.557Z,99.90
2018-09-25T06:05:18.331Z,99.90
2018-09-25T06:07:52.475Z,99.90
2018-09-25T06:10:26.393Z,99.90
2018-09-25T06:13:00.138Z,99.90
2018-09-25T06:15:34.138Z,99.90
2018-09-25T06:18:07.881Z,99.90
2018-09-25T06:20:41.814Z,99.90
2018-09-25T06:23:15.568Z,99.90
2018-09-25T06:25:49.474Z,99.90
2018-09-25T06:28:23.326Z,99.90
2018-09-25T06:30:57.249Z,99.90
2018-09-25T06:33:31.248Z,99.90
2018-09-25T06:36:05.248Z,99.90
2018-09-25T06:38:39.183Z,99.90
2018-09-25T06:41:13.172Z,99.90
2018-09-25T06:43:46.957Z,99.90
2018-09-25T06:46:21.002Z,99.90
2018-09-25T06:48:54.901Z,99.90
2018-09-25T06:51:28.807Z,99.90
2018-09-25T06:54:02.658Z,99.90
2018-09-25T06:56:36.504Z,99.90
2018-09-25T06:59:10.455Z,99.90
2018-09-25T07:01:44.431Z,99.90
2018-09-25T07:04:18.195Z,99.90
2018-09-25T07:06:52.061Z,99.90
2018-09-25T07:09:25.759Z,99.90
2018-09-25T07:11:59.886Z,99.90
2018-09-25T07:14:33.954Z,99.90
2018-09-25T07:17:07.894Z,99.90
2018-09-25T07:19:41.779Z,99.90
2018-09-25T07:22:15.523Z,99.90
2018-09-25T07:24:49.381Z,99.90
2018-09-25T07:27:23.112Z,99.90
2018-09-25T07:29:57.103Z,99.90
2018-09-25T07:32:31.000Z,99.90
2018-09-25T07:35:04.843Z,99.90
2018-09-25T07:37:38.739Z,99.90
2018-09-25T07:40:12.726Z,99.90
2018-09-25T07:42:46.677Z,99.90
2018-09-25T07:45:20.480Z,99.90
2018-09-25T07:47:54.202Z,99.90
2018-09-25T07:50:28.058Z,99.90
2018-09-25T07:53:01.978Z,99.90
2018-09-25T07:55:35.971Z,99.90
2018-09-25T07:58:09.763Z,99.90
2018-09-25T08:00:43.492Z,99.90
2018-09-25T08:03:17.327Z,99.90
2018-09-25T08:05:51.097Z,99.90
2018-09-25T08:08:24.830Z,99.90
2018-09-25T08:10:58.507Z,99.90
2018-09-25T08:13:32.176Z,99.90
2018-09-25T08:16:05.855Z,99.90
2018-09-25T08:18:39.692Z,99.90
2018-09-25T08:21:13.526Z,99.90
2018-09-25T08:23:47.373Z,99.90
2018-09-25T08:26:21.282Z,99.90
2018-09-25T08:28:55.140Z,99.90
2018-09-25T08:31:28.822Z,99.90
2018-09-25T08:34:02.495Z,99.90
2018-09-25T08:36:36.312Z,99.70
2018-09-25T08:39:13.527Z,99.50
2018-09-25T08:41:47.613Z,99.90
2018-09-25T08:44:21.297Z,99.90
2018-09-25T08:46:55.267Z,99.90
2018-09-25T08:49:28.975Z,99.90
2018-09-25T08:52:02.845Z,98.80
2018-09-25T08:54:36.769Z,98.60
2018-09-25T08:57:10.619Z,97.70
2018-09-25T08:59:44.472Z,97.90
2018-09-25T09:02:18.239Z,97.70
2018-09-25T09:04:51.987Z,95.80
2018-09-25T09:07:25.752Z,95.10
2018-09-25T09:09:59.488Z,93.80
2018-09-25T09:12:33.201Z,93.30
2018-09-25T09:15:07.038Z,91.10
2018-09-25T09:17:40.825Z,87.00
2018-09-25T09:20:14.690Z,85.20
2018-09-25T09:22:48.508Z,79.60
2018-09-25T09:25:22.237Z,65.90
2018-09-25T09:27:56.090Z,57.20
2018-09-25T09:30:29.786Z,51.50
2018-09-25T09:33:03.621Z,47.20
2018-09-25T09:35:37.444Z,45.70
2018-09-25T09:38:11.350Z,43.60
2018-09-25T09:40:45.099Z,43.30
2018-09-25T09:43:18.958Z,40.90
2018-09-25T09:45:52.874Z,38.60
2018-09-25T09:48:26.504Z,38.00
2018-09-25T09:51:00.352Z,35.50
2018-09-25T09:53:34.192Z,36.70
2018-09-25T09:56:08.400Z,35.80
2018-09-25T09:58:42.106Z,36.10
2018-09-25T10:01:15.945Z,35.30
2018-09-25T10:03:49.687Z,34.60
2018-09-25T10:06:23.490Z,35.20
2018-09-25T10:08:57.357Z,35.60
2018-09-25T10:11:31.096Z,34.90
2018-09-25T10:14:04.895Z,33.30
2018-09-25T10:16:38.813Z,32.20
2018-09-25T10:19:12.806Z,32.30
2018-09-25T10:21:46.755Z,32.20
2018-09-25T10:24:20.614Z,32.40
2018-09-25T10:26:54.443Z,32.60
2018-09-25T10:29:28.249Z,31.30
2018-09-25T10:32:02.065Z,31.20
2018-09-25T10:34:35.917Z,29.30
2018-09-25T10:37:09.919Z,29.60
2018-09-25T10:39:43.701Z,29.60
2018-09-25T10:42:17.654Z,28.60
2018-09-25T10:44:51.525Z,27.90
2018-09-25T10:47:25.381Z,28.50
2018-09-25T10:49:59.110Z,28.80
2018-09-25T10:52:32.893Z,28.70
2018-09-25T10:55:06.696Z,27.70
2018-09-25T10:57:40.587Z,26.10
2018-09-25T11:00:14.333Z,26.00
2018-09-25T11:02:48.295Z,27.00
2018-09-25T11:05:21.826Z,27.00
2018-09-25T11:07:55.525Z,27.30
2018-09-25T11:10:29.211Z,26.30
2018-09-25T11:13:02.912Z,26.00
2018-09-25T11:15:36.741Z,25.90
2018-09-25T11:18:10.626Z,26.40
2018-09-25T11:20:44.320Z,25.60
2018-09-25T11:23:18.066Z,26.60
2018-09-25T11:25:51.953Z,26.40
2018-09-25T11:28:25.758Z,26.70
2018-09-25T11:30:59.577Z,26.20
2018-09-25T11:33:33.500Z,26.60
2018-09-25T11:36:07.279Z,26.40
2018-09-25T11:38:41.140Z,26.60
2018-09-25T11:41:15.037Z,27.10
2018-09-25T11:43:48.826Z,26.50
2018-09-25T11:46:22.624Z,26.40
2018-09-25T11:48:56.553Z,28.10
2018-09-25T11:51:30.355Z,27.40
2018-09-25T11:54:04.178Z,26.70
2018-09-25T11:56:37.825Z,27.00
2018-09-25T11:59:11.702Z,28.00
2018-09-25T12:01:45.608Z,26.90
2018-09-25T12:04:19.581Z,27.40
2018-09-25T12:06:53.294Z,28.30
2018-09-25T12:09:27.208Z,33.00
2018-09-25T12:12:01.076Z,37.90
2018-09-25T12:14:35.003Z,36.70
2018-09-25T12:17:08.869Z,35.50
2018-09-25T12:19:42.846Z,32.60
2018-09-25T12:22:16.630Z,30.20
2018-09-25T12:24:50.567Z,28.90
2018-09-25T12:27:24.359Z,28.40
2018-09-25T12:29:58.249Z,28.50
2018-09-25T12:32:32.187Z,27.30
2018-09-25T12:35:06.168Z,28.10
2018-09-25T12:37:39.862Z,27.80
2018-09-25T12:40:13.717Z,27.30
2018-09-25T12:42:47.516Z,28.30
2018-09-25T12:45:21.284Z,26.50
2018-09-25T12:47:55.179Z,27.10
2018-09-25T12:50:29.093Z,27.10
2018-09-25T12:53:02.911Z,26.60
2018-09-25T12:55:36.689Z,27.00
2018-09-25T12:58:10.414Z,27.10
2018-09-25T13:00:44.236Z,27.20
2018-09-25T13:03:18.102Z,27.50
2018-09-25T13:05:51.850Z,26.90
2018-09-25T13:08:25.636Z,27.10
2018-09-25T13:10:59.537Z,27.40
2018-09-25T13:13:33.474Z,27.00
2018-09-25T13:16:07.270Z,26.70
2018-09-25T13:18:40.995Z,26.20
2018-09-25T13:21:14.722Z,26.40
2018-09-25T13:23:48.380Z,26.90
2018-09-25T13:26:22.128Z,27.00
2018-09-25T13:28:55.808Z,26.70
2018-09-25T13:31:29.596Z,26.30
2018-09-25T13:34:03.492Z,26.10
2018-09-25T13:36:37.348Z,25.90
2018-09-25T13:39:13.502Z,26.80
2018-09-25T13:41:47.612Z,26.40
2018-09-25T13:44:21.322Z,29.20
2018-09-25T13:46:55.116Z,30.70
2018-09-25T13:49:28.882Z,29.80
2018-09-25T13:52:02.816Z,29.10
2018-09-25T13:54:36.532Z,28.50
2018-09-25T13:57:10.459Z,27.70
2018-09-25T13:59:44.395Z,27.90
2018-09-25T14:02:18.104Z,27.20
2018-09-25T14:04:52.452Z,27.90
2018-09-25T14:07:26.434Z,27.70
2018-09-25T14:10:00.312Z,26.90
2018-09-25T14:12:34.125Z,27.60
2018-09-25T14:15:07.883Z,27.50
2018-09-25T14:17:41.700Z,28.70
2018-09-25T14:20:15.377Z,28.80
2018-09-25T14:22:49.250Z,28.20
2018-09-25T14:25:22.966Z,29.10
2018-09-25T14:27:56.791Z,30.10
2018-09-25T14:30:30.649Z,29.50
2018-09-25T14:33:04.575Z,29.20
2018-09-25T14:35:38.476Z,29.20
2018-09-25T14:38:12.361Z,29.00
2018-09-25T14:40:46.061Z,29.00
2018-09-25T14:43:19.827Z,29.60
2018-09-25T14:45:53.517Z,29.50
2018-09-25T14:48:27.348Z,29.60
2018-09-25T14:51:01.160Z,29.50
2018-09-25T14:53:35.072Z,29.70
2018-09-25T14:56:08.901Z,29.60
2018-09-25T14:58:42.831Z,31.90
2018-09-25T15:01:16.529Z,32.30
2018-09-25T15:03:50.507Z,34.10
2018-09-25T15:06:24.451Z,32.80
2018-09-25T15:08:58.229Z,31.70
2018-09-25T15:11:32.024Z,30.80
2018-09-25T15:14:05.794Z,30.40
2018-09-25T15:16:39.673Z,30.50
2018-09-25T15:19:13.636Z,31.50
2018-09-25T15:21:47.656Z,31.60
2018-09-25T15:24:21.267Z,32.70
2018-09-25T15:26:54.986Z,32.60
2018-09-25T15:29:28.733Z,32.40
2018-09-25T15:32:02.328Z,32.80
2018-09-25T15:34:36.237Z,33.20
2018-09-25T15:37:10.066Z,34.90
2018-09-25T15:39:43.857Z,34.00
2018-09-25T15:42:17.652Z,34.30
2018-09-25T15:44:51.355Z,34.50
2018-09-25T15:47:25.196Z,35.00
2018-09-25T15:49:59.067Z,34.80
2018-09-25T15:52:32.991Z,36.00
2018-09-25T15:55:06.795Z,39.20
2018-09-25T15:57:40.751Z,41.70
2018-09-25T16:00:14.571Z,43.50
2018-09-25T16:02:51.824Z,43.70
2018-09-25T16:08:11.297Z,46.60
2018-09-25T16:10:47.576Z,47.60
2018-09-25T16:13:21.545Z,49.70
2018-09-25T16:15:55.467Z,49.10
2018-09-25T16:18:29.374Z,51.50
2018-09-25T16:21:03.157Z,50.90
2018-09-25T16:23:36.911Z,49.70
2018-09-25T16:26:10.762Z,50.90
2018-09-25T16:28:44.460Z,50.20
2018-09-25T16:31:18.263Z,51.80
2018-09-25T16:33:51.996Z,53.40
2018-09-25T16:36:25.699Z,53.80
2018-09-25T16:38:59.520Z,52.50
2018-09-25T16:41:33.267Z,53.30
2018-09-25T16:44:07.080Z,54.70
2018-09-25T16:46:41.036Z,55.20
2018-09-25T16:49:14.927Z,55.30
2018-09-25T16:51:48.601Z,58.50
2018-09-25T16:54:22.327Z,59.50
2018-09-25T16:56:56.069Z,60.00
2018-09-25T16:59:30.023Z,58.80
2018-09-25T17:02:03.849Z,59.80
2018-09-25T17:04:37.636Z,61.10
2018-09-25T17:07:11.554Z,60.00
2018-09-25T17:09:45.417Z,62.20
2018-09-25T17:12:19.323Z,65.40
2018-09-25T17:14:53.126Z,65.50
2018-09-25T17:17:26.917Z,66.40
2018-09-25T17:20:00.842Z,69.30
2018-09-25T17:22:34.734Z,69.70
2018-09-25T17:25:08.690Z,71.00
2018-09-25T17:27:42.466Z,72.30
2018-09-25T17:30:16.266Z,73.10
2018-09-25T17:32:49.996Z,75.60
2018-09-25T17:35:23.788Z,78.30
2018-09-25T17:37:57.618Z,79.50
2018-09-25T17:40:31.438Z,80.90
2018-09-25T17:43:05.190Z,82.40
2018-09-25T17:45:39.155Z,84.00
2018-09-25T17:48:19.821Z,85.30
2018-09-25T17:50:53.560Z,87.20
2018-09-25T17:53:27.377Z,87.80
2018-09-25T17:56:01.176Z,89.60
2018-09-25T17:58:35.008Z,90.20
2018-09-25T18:01:08.820Z,91.10
2018-09-25T18:03:42.503Z,91.50
2018-09-25T18:06:16.438Z,92.10
2018-09-25T18:08:50.199Z,92.70
2018-09-25T18:11:23.979Z,93.00
2018-09-25T18:13:57.771Z,93.60
2018-09-25T18:16:31.549Z,94.10
2018-09-25T18:19:05.348Z,94.40
2018-09-25T18:21:39.128Z,94.80
2018-09-25T18:24:13.058Z,95.10
2018-09-25T18:26:46.837Z,95.60
2018-09-25T18:29:20.629Z,95.90
2018-09-25T18:31:54.463Z,96.20
2018-09-25T18:34:28.214Z,96.80
2018-09-25T18:37:01.839Z,96.90
2018-09-25T18:39:35.553Z,97.00
2018-09-25T18:42:09.485Z,97.40
2018-09-25T18:44:43.235Z,97.70
2018-09-25T18:47:17.208Z,98.10
2018-09-25T18:49:50.942Z,98.10
2018-09-25T18:52:24.804Z,98.40
2018-09-25T18:54:58.606Z,98.50
2018-09-25T18:57:32.376Z,98.70
2018-09-25T19:00:06.215Z,98.70
2018-09-25T19:02:40.133Z,99.30
2018-09-25T19:05:13.929Z,99.70
2018-09-25T19:07:47.695Z,99.70
2018-09-25T19:10:21.670Z,99.80
2018-09-25T19:12:55.684Z,99.60
2018-09-25T19:15:29.500Z,99.70
2018-09-25T19:18:03.282Z,99.90
2018-09-25T19:20:37.229Z,99.90
2018-09-25T19:23:11.703Z,99.90
2018-09-25T19:25:45.625Z,99.90
2018-09-25T19:28:19.954Z,99.90
2018-09-25T19:30:53.823Z,99.90
2018-09-25T19:33:27.569Z,99.90
2018-09-25T19:36:01.385Z,99.90
2018-09-25T19:38:35.057Z,99.90
2018-09-25T19:41:08.959Z,99.90
2018-09-25T19:43:42.830Z,99.90
2018-09-25T19:46:16.747Z,99.90
2018-09-25T19:48:50.497Z,99.90
2018-09-25T19:51:24.237Z,99.90
2018-09-25T19:53:58.003Z,99.90
2018-09-25T19:56:31.795Z,99.90
2018-09-25T19:59:05.524Z,99.90
2018-09-25T20:01:39.488Z,99.90
2018-09-25T20:04:13.523Z,99.90
2018-09-25T20:06:47.123Z,99.90
2018-09-25T20:09:20.830Z,99.90
2018-09-25T20:11:54.814Z,99.90
2018-09-25T20:14:28.677Z,99.90
2018-09-25T20:17:02.507Z,99.90
2018-09-25T20:19:36.451Z,99.90
2018-09-25T20:22:12.407Z,99.90
2018-09-25T20:24:46.551Z,99.90
2018-09-25T20:27:20.424Z,99.90
2018-09-25T20:29:54.286Z,99.90
2018-09-25T20:32:28.210Z,99.90
2018-09-25T20:35:02.125Z,99.90
2018-09-25T20:37:35.892Z,99.90
2018-09-25T20:40:10.059Z,99.90
2018-09-25T20:42:43.992Z,99.90
2018-09-25T20:45:17.723Z,99.90
2018-09-25T20:47:51.370Z,99.90
2018-09-25T20:50:25.096Z,99.90
2018-09-25T20:52:58.828Z,99.90
2018-09-25T20:55:32.653Z,99.90
2018-09-25T20:58:06.387Z,99.90
2018-09-25T21:00:40.006Z,99.90
2018-09-25T21:03:13.733Z,99.90
2018-09-25T21:05:47.580Z,99.90
2018-09-25T21:08:21.277Z,99.90
2018-09-25T21:10:55.155Z,99.90
2018-09-25T21:13:29.107Z,99.90
2018-09-25T21:16:02.992Z,99.90
2018-09-25T21:18:36.767Z,99.90
2018-09-25T21:21:10.738Z,99.90
2018-09-25T21:23:44.349Z,99.90
2018-09-25T21:26:18.217Z,99.90
2018-09-25T21:28:51.996Z,99.90
2018-09-25T21:31:25.733Z,99.90
2018-09-25T21:33:59.489Z,99.90
2018-09-25T21:36:33.133Z,99.90
2018-09-25T21:39:07.093Z,99.90
2018-09-25T21:41:40.917Z,99.90
2018-09-25T21:44:14.607Z,99.90
2018-09-25T21:46:48.461Z,99.90
2018-09-25T21:49:22.363Z,99.90
2018-09-25T21:51:56.168Z,99.90
2018-09-25T21:54:29.982Z,99.90
2018-09-25T21:57:03.809Z,99.90
2018-09-25T21:59:37.442Z,99.90
2018-09-25T22:02:11.206Z,99.90
2018-09-25T22:04:45.016Z,99.90
2018-09-25T22:07:18.784Z,99.90
2018-09-25T22:09:52.493Z,99.90
2018-09-25T22:12:26.257Z,99.90
2018-09-25T22:15:00.194Z,99.90
2018-09-25T22:17:33.856Z,99.90
2018-09-25T22:20:07.788Z,99.90
2018-09-25T22:22:41.532Z,99.90
2018-09-25T22:25:15.375Z,99.90
2018-09-25T22:27:49.218Z,99.90
2018-09-25T22:30:22.936Z,99.90
2018-09-25T22:32:56.779Z,99.90
2018-09-25T22:35:30.534Z,99.90
2018-09-25T22:38:04.373Z,99.90
2018-09-25T22:40:38.139Z,99.90
2018-09-25T22:43:12.014Z,99.90
2018-09-25T22:45:45.952Z,99.90
2018-09-25T22:48:19.920Z,99.90
2018-09-25T22:50:53.719Z,99.90
2018-09-25T22:53:27.371Z,99.90
2018-09-25T22:56:01.095Z,99.90
2018-09-25T22:58:35.114Z,99.90
2018-09-25T23:01:08.842Z,99.90
2018-09-25T23:03:42.675Z,99.90
2018-09-25T23:06:16.463Z,99.90
2018-09-25T23:08:50.179Z,99.90
2018-09-25T23:11:23.932Z,99.90
2018-09-25T23:13:57.767Z,99.90
2018-09-25T23:16:31.513Z,99.90
2018-09-25T23:19:05.327Z,99.90
2018-09-25T23:21:39.017Z,99.90
2018-09-25T23:24:12.823Z,99.90
2018-09-25T23:26:46.511Z,99.90
2018-09-25T23:29:20.365Z,99.90
2018-09-25T23:31:54.146Z,99.90
2018-09-25T23:34:27.979Z,99.90
2018-09-25T23:37:01.828Z,99.90
2018-09-25T23:39:34.474Z,99.90
2018-09-25T23:43:08.892Z,99.90
2018-09-25T23:45:50.749Z,99.90
2018-09-25T23:48:26.360Z,99.90
2018-09-25T23:51:04.198Z,99.90
2018-09-25T23:53:36.777Z,99.90
2018-09-25T23:56:11.622Z,99.90
2018-09-25T23:58:46.438Z,99.90
